sensor_id;sensor_type;location;lat;lon;timestamp;P1;durP1;ratioP1;P2;durP2;ratioP2
9506;SDS011;4791;47.528;9.372;2022-12-10T00:13:46;14.97;;;13.67;;
9506;SDS011;4791;47.528;9.372;2022-12-10T00:28:47;14.37;;;13.10;;
9506;SDS011;4791;47.528;9.372;2022-12-10T00:43:48;14.50;;;13.00;;
9506;SDS011;4791;47.528;9.372;2022-12-10T00:58:49;14.68;;;13.38;;
9506;SDS011;4791;47.528;9.372;2022-12-10T01:13:51;13.77;;;12.57;;
9506;SDS011;4791;47.528;9.372;2022-12-10T01:28:54;14.45;;;13.15;;
9506;SDS011;4791;47.528;9.372;2022-12-10T01:59:02;14.67;;;13.37;;
9506;SDS011;4791;47.528;9.372;2022-12-10T02:14:15;14.05;;;12.73;;
9506;SDS011;4791;47.528;9.372;2022-12-10T02:29:20;14.67;;;13.37;;
9506;SDS011;4791;47.528;9.372;2022-12-10T02:44:24;15.73;;;14.23;;
9506;SDS011;4791;47.528;9.372;2022-12-10T03:15:02;14.52;;;13.23;;
9506;SDS011;4791;47.528;9.372;2022-12-10T03:30:05;15.83;;;14.43;;
9506;SDS011;4791;47.528;9.372;2022-12-10T03:45:09;17.27;;;15.57;;
9506;SDS011;4791;47.528;9.372;2022-12-10T04:00:12;17.75;;;16.15;;
9506;SDS011;4791;47.528;9.372;2022-12-10T04:15:13;19.53;;;17.73;;
9506;SDS011;4791;47.528;9.372;2022-12-10T04:30:32;18.53;;;16.73;;
9506;SDS011;4791;47.528;9.372;2022-12-10T04:45:33;20.10;;;18.10;;
9506;SDS011;4791;47.528;9.372;2022-12-10T05:00:37;19.40;;;17.60;;
9506;SDS011;4791;47.528;9.372;2022-12-10T05:15:40;20.30;;;18.40;;
9506;SDS011;4791;47.528;9.372;2022-12-10T05:30:43;19.40;;;17.50;;
9506;SDS011;4791;47.528;9.372;2022-12-10T05:45:46;20.23;;;18.33;;
9506;SDS011;4791;47.528;9.372;2022-12-10T06:00:46;20.63;;;18.63;;
9506;SDS011;4791;47.528;9.372;2022-12-10T06:15:47;20.92;;;18.92;;
9506;SDS011;4791;47.528;9.372;2022-12-10T06:30:49;21.47;;;19.37;;
9506;SDS011;4791;47.528;9.372;2022-12-10T06:45:52;22.47;;;20.27;;
9506;SDS011;4791;47.528;9.372;2022-12-10T07:01:01;23.00;;;20.88;;
9506;SDS011;4791;47.528;9.372;2022-12-10T07:16:12;23.37;;;21.07;;
9506;SDS011;4791;47.528;9.372;2022-12-10T07:31:14;23.20;;;20.97;;
9506;SDS011;4791;47.528;9.372;2022-12-10T07:46:18;23.10;;;20.90;;
9506;SDS011;4791;47.528;9.372;2022-12-10T08:01:25;23.67;;;21.37;;
9506;SDS011;4791;47.528;9.372;2022-12-10T08:16:27;23.80;;;21.50;;
9506;SDS011;4791;47.528;9.372;2022-12-10T08:31:31;23.30;;;20.90;;
9506;SDS011;4791;47.528;9.372;2022-12-10T08:46:34;23.13;;;20.73;;
9506;SDS011;4791;47.528;9.372;2022-12-10T09:01:36;21.58;;;19.27;;
9506;SDS011;4791;47.528;9.372;2022-12-10T09:16:37;21.40;;;19.20;;
9506;SDS011;4791;47.528;9.372;2022-12-10T09:31:44;20.83;;;18.75;;
9506;SDS011;4791;47.528;9.372;2022-12-10T09:46:54;20.67;;;18.57;;
9506;SDS011;4791;47.528;9.372;2022-12-10T10:02:03;20.83;;;18.73;;
9506;SDS011;4791;47.528;9.372;2022-12-10T10:17:23;20.03;;;18.13;;
9506;SDS011;4791;47.528;9.372;2022-12-10T10:47:37;20.13;;;18.13;;
9506;SDS011;4791;47.528;9.372;2022-12-10T11:02:43;19.15;;;17.30;;
9506;SDS011;4791;47.528;9.372;2022-12-10T11:17:46;19.60;;;17.60;;
9506;SDS011;4791;47.528;9.372;2022-12-10T12:19:28;21.73;;;19.53;;
9506;SDS011;4791;47.528;9.372;2022-12-10T12:49:53;17.73;;;16.03;;
9506;SDS011;4791;47.528;9.372;2022-12-10T13:04:55;15.77;;;14.27;;
9506;SDS011;4791;47.528;9.372;2022-12-10T13:35:28;11.60;;;10.40;;
9506;SDS011;4791;47.528;9.372;2022-12-10T14:21:17;10.33;;;9.33;;
9506;SDS011;4791;47.528;9.372;2022-12-10T14:36:31;9.80;;;8.87;;
9506;SDS011;4791;47.528;9.372;2022-12-10T14:51:37;10.03;;;8.93;;
9506;SDS011;4791;47.528;9.372;2022-12-10T15:06:40;10.53;;;9.43;;
9506;SDS011;4791;47.528;9.372;2022-12-10T15:21:41;9.95;;;8.98;;
9506;SDS011;4791;47.528;9.372;2022-12-10T15:36:48;11.32;;;9.98;;
9506;SDS011;4791;47.528;9.372;2022-12-10T15:51:52;11.68;;;10.57;;
9506;SDS011;4791;47.528;9.372;2022-12-10T16:06:52;10.70;;;9.70;;
9506;SDS011;4791;47.528;9.372;2022-12-10T16:21:53;11.37;;;10.27;;
9506;SDS011;4791;47.528;9.372;2022-12-10T16:36:53;9.30;;;8.38;;
9506;SDS011;4791;47.528;9.372;2022-12-10T16:51:54;9.40;;;8.50;;
9506;SDS011;4791;47.528;9.372;2022-12-10T17:06:54;9.18;;;8.23;;
9506;SDS011;4791;47.528;9.372;2022-12-10T17:21:57;10.50;;;9.50;;
9506;SDS011;4791;47.528;9.372;2022-12-10T17:36:57;11.07;;;9.98;;
9506;SDS011;4791;47.528;9.372;2022-12-10T17:51:58;10.05;;;9.05;;
9506;SDS011;4791;47.528;9.372;2022-12-10T18:06:59;11.00;;;9.90;;
9506;SDS011;4791;47.528;9.372;2022-12-10T18:21:59;10.25;;;9.23;;
9506;SDS011;4791;47.528;9.372;2022-12-10T18:37:02;11.73;;;10.53;;
9506;SDS011;4791;47.528;9.372;2022-12-10T18:52:03;11.40;;;10.30;;
9506;SDS011;4791;47.528;9.372;2022-12-10T19:07:03;11.17;;;10.17;;
9506;SDS011;4791;47.528;9.372;2022-12-10T19:22:04;13.20;;;11.90;;
9506;SDS011;4791;47.528;9.372;2022-12-10T19:37:09;13.73;;;12.43;;
9506;SDS011;4791;47.528;9.372;2022-12-10T19:52:09;13.63;;;12.30;;
9506;SDS011;4791;47.528;9.372;2022-12-10T20:07:10;12.60;;;11.40;;
9506;SDS011;4791;47.528;9.372;2022-12-10T20:22:12;13.77;;;12.45;;
9506;SDS011;4791;47.528;9.372;2022-12-10T20:37:12;14.37;;;12.97;;
9506;SDS011;4791;47.528;9.372;2022-12-10T20:52:15;15.10;;;13.63;;
9506;SDS011;4791;47.528;9.372;2022-12-10T21:07:15;14.80;;;13.40;;
9506;SDS011;4791;47.528;9.372;2022-12-10T21:22:16;15.40;;;13.93;;
9506;SDS011;4791;47.528;9.372;2022-12-10T21:37:16;16.33;;;14.85;;
9506;SDS011;4791;47.528;9.372;2022-12-10T21:52:17;16.17;;;14.67;;
9506;SDS011;4791;47.528;9.372;2022-12-10T22:07:17;16.40;;;14.90;;
9506;SDS011;4791;47.528;9.372;2022-12-10T22:22:18;17.67;;;16.03;;
9506;SDS011;4791;47.528;9.372;2022-12-10T22:37:18;17.27;;;15.65;;
9506;SDS011;4791;47.528;9.372;2022-12-10T22:52:19;17.02;;;15.48;;
9506;SDS011;4791;47.528;9.372;2022-12-10T23:07:19;17.15;;;15.55;;
9506;SDS011;4791;47.528;9.372;2022-12-10T23:22:20;17.63;;;16.02;;
9506;SDS011;4791;47.528;9.372;2022-12-10T23:37:20;17.58;;;15.98;;
9506;SDS011;4791;47.528;9.372;2022-12-10T23:52:22;17.40;;;15.83;;
